sensor_id;sensor_type;location;lat;lon;timestamp;pressure;altitude;pressure_sealevel;temperature;humidity
29903;BME280;30288;50.514;9.678;2023-05-12T00:00:58;98547.78;;;10.48;100.00
29903;BME280;30288;50.514;9.678;2023-05-12T00:03:04;98541.19;;;10.44;100.00
29903;BME280;30288;50.514;9.678;2023-05-12T00:05:10;98541.25;;;10.41;100.00
29903;BME280;30288;50.514;9.678;2023-05-12T00:07:16;98544.81;;;10.36;100.00
29903;BME280;30288;50.514;9.678;2023-05-12T00:09:23;98543.03;;;10.39;100.00
29903;BME280;30288;50.514;9.678;2023-05-12T00:11:29;98544.84;;;10.34;100.00
29903;BME280;30288;50.514;9.678;2023-05-12T00:13:34;98541.47;;;10.35;100.00
29903;BME280;30288;50.514;9.678;2023-05-12T00:15:40;98550.56;;;10.39;100.00
29903;BME280;30288;50.514;9.678;2023-05-12T00:17:45;98534.84;;;10.31;100.00
29903;BME280;30288;50.514;9.678;2023-05-12T00:19:51;98541.41;;;10.37;100.00
29903;BME280;30288;50.514;9.678;2023-05-12T00:21:56;98543.91;;;10.37;100.00
29903;BME280;30288;50.514;9.678;2023-05-12T00:24:01;98540.78;;;10.30;100.00
29903;BME280;30288;50.514;9.678;2023-05-12T00:26:09;98548.34;;;10.30;100.00
29903;BME280;30288;50.514;9.678;2023-05-12T00:28:16;98551.34;;;10.41;100.00
29903;BME280;30288;50.514;9.678;2023-05-12T00:30:21;98546.50;;;10.35;100.00
29903;BME280;30288;50.514;9.678;2023-05-12T00:32:27;98544.75;;;10.37;100.00
29903;BME280;30288;50.514;9.678;2023-05-12T00:34:32;98548.13;;;10.36;100.00
29903;BME280;30288;50.514;9.678;2023-05-12T00:36:37;98542.81;;;10.45;100.00
29903;BME280;30288;50.514;9.678;2023-05-12T00:38:42;98546.81;;;10.52;100.00
29903;BME280;30288;50.514;9.678;2023-05-12T00:40:48;98546.00;;;10.50;100.00
29903;BME280;30288;50.514;9.678;2023-05-12T00:42:56;98542.91;;;10.42;100.00
29903;BME280;30288;50.514;9.678;2023-05-12T00:45:01;98548.13;;;10.36;100.00
29903;BME280;30288;50.514;9.678;2023-05-12T00:47:08;98547.34;;;10.36;100.00
29903;BME280;30288;50.514;9.678;2023-05-12T00:49:13;98548.34;;;10.30;100.00
29903;BME280;30288;50.514;9.678;2023-05-12T00:51:18;98546.56;;;10.32;100.00
29903;BME280;30288;50.514;9.678;2023-05-12T00:53:23;98546.69;;;10.29;100.00
29903;BME280;30288;50.514;9.678;2023-05-12T00:55:43;98544.91;;;10.31;100.00
29903;BME280;30288;50.514;9.678;2023-05-12T00:57:48;98537.34;;;10.33;100.00
29903;BME280;30288;50.514;9.678;2023-05-12T00:59:56;98528.28;;;10.27;100.00
29903;BME280;30288;50.514;9.678;2023-05-12T01:02:02;98534.13;;;10.28;100.00
29903;BME280;30288;50.514;9.678;2023-05-12T01:04:09;98538.34;;;10.27;100.00
29903;BME280;30288;50.514;9.678;2023-05-12T01:06:20;98536.63;;;10.29;100.00
29903;BME280;30288;50.514;9.678;2023-05-12T01:08:27;98536.50;;;10.32;100.00
29903;BME280;30288;50.514;9.678;2023-05-12T01:10:34;98532.44;;;10.28;100.00
29903;BME280;30288;50.514;9.678;2023-05-12T01:12:39;98531.56;;;10.29;100.00
29903;BME280;30288;50.514;9.678;2023-05-12T01:14:44;98544.84;;;10.34;100.00
29903;BME280;30288;50.514;9.678;2023-05-12T01:16:54;98536.44;;;10.35;100.00
29903;BME280;30288;50.514;9.678;2023-05-12T01:19:05;98534.75;;;10.36;100.00
29903;BME280;30288;50.514;9.678;2023-05-12T01:21:15;98530.50;;;10.36;100.00
29903;BME280;30288;50.514;9.678;2023-05-12T01:23:28;98537.78;;;10.45;100.00
29903;BME280;30288;50.514;9.678;2023-05-12T01:25:38;98541.88;;;10.49;100.00
29903;BME280;30288;50.514;9.678;2023-05-12T01:27:48;98540.09;;;10.53;100.00
29903;BME280;30288;50.514;9.678;2023-05-12T01:29:57;98538.19;;;10.60;100.00
29903;BME280;30288;50.514;9.678;2023-05-12T01:32:07;98537.25;;;10.64;100.00
29903;BME280;30288;50.514;9.678;2023-05-12T01:34:14;98533.81;;;10.65;100.00
29903;BME280;30288;50.514;9.678;2023-05-12T01:36:24;98541.22;;;10.69;100.00
29903;BME280;30288;50.514;9.678;2023-05-12T01:38:30;98543.91;;;10.65;100.00
29903;BME280;30288;50.514;9.678;2023-05-12T01:40:35;98540.31;;;10.72;100.00
29903;BME280;30288;50.514;9.678;2023-05-12T01:42:41;98538.50;;;10.77;100.00
29903;BME280;30288;50.514;9.678;2023-05-12T01:44:49;98539.31;;;10.77;100.00
29903;BME280;30288;50.514;9.678;2023-05-12T01:46:55;98546.81;;;10.79;100.00
29903;BME280;30288;50.514;9.678;2023-05-12T01:49:00;98543.63;;;10.74;100.00
29903;BME280;30288;50.514;9.678;2023-05-12T01:51:06;98550.22;;;10.78;100.00
29903;BME280;30288;50.514;9.678;2023-05-12T01:53:12;98549.41;;;10.77;100.00
29903;BME280;30288;50.514;9.678;2023-05-12T01:55:17;98561.16;;;10.77;100.00
29903;BME280;30288;50.514;9.678;2023-05-12T01:57:29;98549.47;;;10.74;100.00
29903;BME280;30288;50.514;9.678;2023-05-12T01:59:36;98559.53;;;10.74;100.00
29903;BME280;30288;50.514;9.678;2023-05-12T02:01:44;98556.09;;;10.78;100.00
29903;BME280;30288;50.514;9.678;2023-05-12T02:03:55;98553.72;;;10.74;100.00
29903;BME280;30288;50.514;9.678;2023-05-12T02:06:03;98561.38;;;10.69;100.00
29903;BME280;30288;50.514;9.678;2023-05-12T02:08:10;98559.66;;;10.71;100.00
29903;BME280;30288;50.514;9.678;2023-05-12T02:10:15;98562.88;;;10.75;100.00
29903;BME280;30288;50.514;9.678;2023-05-12T02:12:21;98563.78;;;10.74;100.00
29903;BME280;30288;50.514;9.678;2023-05-12T02:14:26;98563.00;;;10.72;100.00
29903;BME280;30288;50.514;9.678;2023-05-12T02:16:32;98568.91;;;10.71;100.00
29903;BME280;30288;50.514;9.678;2023-05-12T02:18:40;98565.50;;;10.72;100.00
29903;BME280;30288;50.514;9.678;2023-05-12T02:20:45;98567.34;;;10.67;100.00
29903;BME280;30288;50.514;9.678;2023-05-12T02:22:50;98566.63;;;10.63;100.00
29903;BME280;30288;50.514;9.678;2023-05-12T02:24:55;98570.13;;;10.59;100.00
29903;BME280;30288;50.514;9.678;2023-05-12T02:27:01;98566.66;;;10.62;100.00
29903;BME280;30288;50.514;9.678;2023-05-12T02:29:06;98564.25;;;10.59;100.00
29903;BME280;30288;50.514;9.678;2023-05-12T02:31:12;98563.28;;;10.63;100.00
29903;BME280;30288;50.514;9.678;2023-05-12T02:33:20;98564.97;;;10.62;100.00
29903;BME280;30288;50.514;9.678;2023-05-12T02:35:28;98565.69;;;10.66;100.00
29903;BME280;30288;50.514;9.678;2023-05-12T02:37:33;98568.91;;;10.71;100.00
29903;BME280;30288;50.514;9.678;2023-05-12T02:39:39;98564.69;;;10.71;100.00
29903;BME280;30288;50.514;9.678;2023-05-12T02:41:44;98570.72;;;10.66;100.00
29903;BME280;30288;50.514;9.678;2023-05-12T02:43:50;98569.28;;;10.59;100.00
29903;BME280;30288;50.514;9.678;2023-05-12T02:45:56;98565.25;;;10.53;100.00
29903;BME280;30288;50.514;9.678;2023-05-12T02:48:02;98572.94;;;10.48;100.00
29903;BME280;30288;50.514;9.678;2023-05-12T02:50:08;98572.84;;;10.51;100.00
29903;BME280;30288;50.514;9.678;2023-05-12T02:52:16;98569.50;;;10.51;100.00
29903;BME280;30288;50.514;9.678;2023-05-12T02:54:23;98569.56;;;10.49;100.00
29903;BME280;30288;50.514;9.678;2023-05-12T02:56:28;98571.88;;;10.56;100.00
29903;BME280;30288;50.514;9.678;2023-05-12T02:58:35;98577.72;;;10.58;100.00
29903;BME280;30288;50.514;9.678;2023-05-12T03:00:40;98571.75;;;10.60;100.00
29903;BME280;30288;50.514;9.678;2023-05-12T03:02:45;98575.91;;;10.61;100.00
29903;BME280;30288;50.514;9.678;2023-05-12T03:04:51;98580.13;;;10.61;100.00
29903;BME280;30288;50.514;9.678;2023-05-12T03:06:56;98579.38;;;10.59;100.00
29903;BME280;30288;50.514;9.678;2023-05-12T03:09:04;98584.28;;;10.62;100.00
29903;BME280;30288;50.514;9.678;2023-05-12T03:11:09;98584.13;;;10.68;100.00
29903;BME280;30288;50.514;9.678;2023-05-12T03:13:14;98577.31;;;10.70;100.00
29903;BME280;30288;50.514;9.678;2023-05-12T03:15:20;98580.72;;;10.69;100.00
29903;BME280;30288;50.514;9.678;2023-05-12T03:17:25;98584.19;;;10.65;100.00
29903;BME280;30288;50.514;9.678;2023-05-12T03:19:31;98582.66;;;10.61;100.00
29903;BME280;30288;50.514;9.678;2023-05-12T03:21:36;98581.09;;;10.57;100.00
29903;BME280;30288;50.514;9.678;2023-05-12T03:23:42;98574.41;;;10.56;100.00
29903;BME280;30288;50.514;9.678;2023-05-12T03:25:50;98582.91;;;10.51;100.00
29903;BME280;30288;50.514;9.678;2023-05-12T03:27:55;98579.72;;;10.46;100.00
29903;BME280;30288;50.514;9.678;2023-05-12T03:30:00;98576.50;;;10.41;100.00
29903;BME280;30288;50.514;9.678;2023-05-12T03:32:09;98579.81;;;10.43;100.00
29903;BME280;30288;50.514;9.678;2023-05-12T03:34:15;98578.25;;;10.39;100.00
29903;BME280;30288;50.514;9.678;2023-05-12T03:36:20;98584.16;;;10.38;100.00
29903;BME280;30288;50.514;9.678;2023-05-12T03:38:26;98580.00;;;10.37;100.00
29903;BME280;30288;50.514;9.678;2023-05-12T03:40:31;98582.38;;;10.42;100.00
29903;BME280;30288;50.514;9.678;2023-05-12T03:42:39;98586.56;;;10.41;100.00
29903;BME280;30288;50.514;9.678;2023-05-12T03:44:44;98580.00;;;10.37;100.00
29903;BME280;30288;50.514;9.678;2023-05-12T03:46:50;98592.66;;;10.36;100.00
29903;BME280;30288;50.514;9.678;2023-05-12T03:48:55;98586.66;;;10.40;100.00
29903;BME280;30288;50.514;9.678;2023-05-12T03:51:01;98579.81;;;10.43;100.00
29903;BME280;30288;50.514;9.678;2023-05-12T03:53:06;98580.69;;;10.42;100.00
29903;BME280;30288;50.514;9.678;2023-05-12T03:55:11;98583.19;;;10.42;100.00
29903;BME280;30288;50.514;9.678;2023-05-12T03:57:17;98584.75;;;10.46;100.00
29903;BME280;30288;50.514;9.678;2023-05-12T03:59:24;98579.72;;;10.46;100.00
29903;BME280;30288;50.514;9.678;2023-05-12T04:01:29;98576.88;;;10.57;100.00
29903;BME280;30288;50.514;9.678;2023-05-12T04:03:35;98582.75;;;10.58;100.00
29903;BME280;30288;50.514;9.678;2023-05-12T04:05:43;98579.38;;;10.59;100.00
29903;BME280;30288;50.514;9.678;2023-05-12T04:07:49;98574.31;;;10.59;100.00
29903;BME280;30288;50.514;9.678;2023-05-12T04:09:54;98584.41;;;10.59;100.00
29903;BME280;30288;50.514;9.678;2023-05-12T04:11:59;98576.06;;;10.57;100.00
29903;BME280;30288;50.514;9.678;2023-05-12T04:14:04;98586.13;;;10.57;100.00
29903;BME280;30288;50.514;9.678;2023-05-12T04:16:13;98590.41;;;10.55;100.00
29903;BME280;30288;50.514;9.678;2023-05-12T04:18:19;98594.66;;;10.52;100.00
29903;BME280;30288;50.514;9.678;2023-05-12T04:20:24;98589.63;;;10.52;100.00
29903;BME280;30288;50.514;9.678;2023-05-12T04:22:29;98589.50;;;10.56;100.00
29903;BME280;30288;50.514;9.678;2023-05-12T04:24:36;98594.53;;;10.56;100.00
29903;BME280;30288;50.514;9.678;2023-05-12T04:26:42;98592.91;;;10.55;100.00
29903;BME280;30288;50.514;9.678;2023-05-12T04:28:47;98598.69;;;10.58;100.00
29903;BME280;30288;50.514;9.678;2023-05-12T04:30:52;98602.78;;;10.61;100.00
29903;BME280;30288;50.514;9.678;2023-05-12T04:33:01;98602.72;;;10.64;100.00
29903;BME280;30288;50.514;9.678;2023-05-12T04:35:08;98602.59;;;10.67;100.00
29903;BME280;30288;50.514;9.678;2023-05-12T04:37:13;98600.88;;;10.69;100.00
29903;BME280;30288;50.514;9.678;2023-05-12T04:39:19;98602.50;;;10.70;100.00
29903;BME280;30288;50.514;9.678;2023-05-12T04:41:24;98614.97;;;10.74;100.00
29903;BME280;30288;50.514;9.678;2023-05-12T04:43:30;98614.88;;;10.77;100.00
29903;BME280;30288;50.514;9.678;2023-05-12T04:45:39;98613.09;;;10.81;100.00
29903;BME280;30288;50.514;9.678;2023-05-12T04:47:45;98610.38;;;10.87;100.00
29903;BME280;30288;50.514;9.678;2023-05-12T04:49:53;98613.59;;;10.92;100.00
29903;BME280;30288;50.514;9.678;2023-05-12T04:51:58;98619.34;;;10.95;100.00
29903;BME280;30288;50.514;9.678;2023-05-12T04:54:04;98623.47;;;10.98;100.00
29903;BME280;30288;50.514;9.678;2023-05-12T04:56:11;98624.81;;;11.08;100.00
29903;BME280;30288;50.514;9.678;2023-05-12T04:58:16;98613.72;;;11.14;100.00
29903;BME280;30288;50.514;9.678;2023-05-12T05:00:22;98619.28;;;11.23;100.00
29903;BME280;30288;50.514;9.678;2023-05-12T05:02:28;98620.66;;;11.33;100.00
29903;BME280;30288;50.514;9.678;2023-05-12T05:04:35;98618.81;;;11.38;100.00
29903;BME280;30288;50.514;9.678;2023-05-12T05:06:42;98615.09;;;11.49;100.00
29903;BME280;30288;50.514;9.678;2023-05-12T05:08:49;98626.31;;;11.65;100.00
29903;BME280;30288;50.514;9.678;2023-05-12T05:10:54;98623.75;;;11.66;100.00
29903;BME280;30288;50.514;9.678;2023-05-12T05:13:01;98622.53;;;11.78;100.00
29903;BME280;30288;50.514;9.678;2023-05-12T05:15:09;98633.19;;;11.86;100.00
29903;BME280;30288;50.514;9.678;2023-05-12T05:17:14;98630.47;;;11.92;100.00
29903;BME280;30288;50.514;9.678;2023-05-12T05:19:20;98623.63;;;11.94;100.00
29903;BME280;30288;50.514;9.678;2023-05-12T05:21:49;98634.84;;;12.10;100.00
29903;BME280;30288;50.514;9.678;2023-05-12T05:23:54;98637.91;;;12.18;100.00
29903;BME280;30288;50.514;9.678;2023-05-12T05:26:00;98634.19;;;12.28;100.00
29903;BME280;30288;50.514;9.678;2023-05-12T05:28:06;98630.44;;;12.39;100.00
29903;BME280;30288;50.514;9.678;2023-05-12T05:30:12;98640.09;;;12.51;100.00
29903;BME280;30288;50.514;9.678;2023-05-12T05:32:17;98632.34;;;12.55;100.00
29903;BME280;30288;50.514;9.678;2023-05-12T05:34:24;98637.78;;;12.68;100.00
29903;BME280;30288;50.514;9.678;2023-05-12T05:36:30;98645.19;;;12.73;100.00
29903;BME280;30288;50.514;9.678;2023-05-12T05:38:37;98641.69;;;12.75;100.00
29903;BME280;30288;50.514;9.678;2023-05-12T05:40:43;98649.63;;;12.88;100.00
29903;BME280;30288;50.514;9.678;2023-05-12T05:42:56;98650.00;;;13.00;100.00
29903;BME280;30288;50.514;9.678;2023-05-12T05:45:01;98641.16;;;13.10;100.00
29903;BME280;30288;50.514;9.678;2023-05-12T05:47:07;98642.47;;;13.21;100.00
29903;BME280;30288;50.514;9.678;2023-05-12T05:49:12;98644.50;;;13.33;100.00
29903;BME280;30288;50.514;9.678;2023-05-12T05:51:18;98641.84;;;13.36;100.00
29903;BME280;30288;50.514;9.678;2023-05-12T05:53:23;98638.94;;;13.45;100.00
29903;BME280;30288;50.514;9.678;2023-05-12T05:55:31;98652.47;;;13.64;100.00
29903;BME280;30288;50.514;9.678;2023-05-12T05:57:37;98646.78;;;13.79;100.00
29903;BME280;30288;50.514;9.678;2023-05-12T05:59:43;98648.44;;;13.80;100.00
29903;BME280;30288;50.514;9.678;2023-05-12T06:01:49;98645.69;;;13.85;100.00
29903;BME280;30288;50.514;9.678;2023-05-12T06:03:55;98645.97;;;14.18;100.00
29903;BME280;30288;50.514;9.678;2023-05-12T06:06:02;98644.94;;;14.22;100.00
29903;BME280;30288;50.514;9.678;2023-05-12T06:08:08;98649.09;;;14.43;100.00
29903;BME280;30288;50.514;9.678;2023-05-12T06:10:14;98648.81;;;14.49;100.00
29903;BME280;30288;50.514;9.678;2023-05-12T06:12:23;98645.88;;;14.58;100.00
29903;BME280;30288;50.514;9.678;2023-05-12T06:14:29;98653.06;;;14.67;100.00
29903;BME280;30288;50.514;9.678;2023-05-12T06:16:34;98648.59;;;14.72;100.00
29903;BME280;30288;50.514;9.678;2023-05-12T06:18:42;98651.78;;;14.95;100.00
29903;BME280;30288;50.514;9.678;2023-05-12T06:20:48;98655.47;;;15.06;100.00
29903;BME280;30288;50.514;9.678;2023-05-12T06:22:53;98655.25;;;15.28;100.00
29903;BME280;30288;50.514;9.678;2023-05-12T06:24:58;98653.03;;;15.56;100.00
29903;BME280;30288;50.514;9.678;2023-05-12T06:27:06;98659.44;;;15.46;100.00
29903;BME280;30288;50.514;9.678;2023-05-12T06:29:13;98652.16;;;15.57;100.00
29903;BME280;30288;50.514;9.678;2023-05-12T06:31:18;98655.66;;;15.55;100.00
29903;BME280;30288;50.514;9.678;2023-05-12T06:33:24;98656.47;;;15.72;100.00
29903;BME280;30288;50.514;9.678;2023-05-12T06:35:29;98649.56;;;15.92;100.00
29903;BME280;30288;50.514;9.678;2023-05-12T06:37:34;98657.38;;;16.04;100.00
29903;BME280;30288;50.514;9.678;2023-05-12T06:39:43;98651.47;;;16.04;100.00
29903;BME280;30288;50.514;9.678;2023-05-12T06:41:49;98654.91;;;16.03;100.00
29903;BME280;30288;50.514;9.678;2023-05-12T06:43:55;98649.78;;;16.20;100.00
29903;BME280;30288;50.514;9.678;2023-05-12T06:46:05;98645.91;;;16.13;100.00
29903;BME280;30288;50.514;9.678;2023-05-12T06:48:11;98656.06;;;16.13;100.00
29903;BME280;30288;50.514;9.678;2023-05-12T06:50:16;98649.03;;;16.18;100.00
29903;BME280;30288;50.514;9.678;2023-05-12T06:52:26;98649.22;;;16.15;100.00
29903;BME280;30288;50.514;9.678;2023-05-12T06:54:31;98649.69;;;16.06;100.00
29903;BME280;30288;50.514;9.678;2023-05-12T06:56:39;98646.91;;;16.26;100.00
29903;BME280;30288;50.514;9.678;2023-05-12T06:58:44;98646.13;;;16.41;100.00
29903;BME280;30288;50.514;9.678;2023-05-12T07:00:49;98651.72;;;16.63;100.00
29903;BME280;30288;50.514;9.678;2023-05-12T07:02:58;98650.50;;;16.71;100.00
29903;BME280;30288;50.514;9.678;2023-05-12T07:05:04;98650.41;;;16.88;100.00
29903;BME280;30288;50.514;9.678;2023-05-12T07:07:09;98653.19;;;16.83;100.00
29903;BME280;30288;50.514;9.678;2023-05-12T07:09:14;98644.25;;;16.60;100.00
29903;BME280;30288;50.514;9.678;2023-05-12T07:11:19;98652.72;;;16.61;100.00
29903;BME280;30288;50.514;9.678;2023-05-12T07:13:24;98649.75;;;17.00;100.00
29903;BME280;30288;50.514;9.678;2023-05-12T07:15:31;98654.50;;;17.20;100.00
29903;BME280;30288;50.514;9.678;2023-05-12T07:17:36;98651.63;;;17.26;100.00
29903;BME280;30288;50.514;9.678;2023-05-12T07:19:45;98654.56;;;17.34;100.00
29903;BME280;30288;50.514;9.678;2023-05-12T07:21:50;98642.91;;;17.30;100.00
29903;BME280;30288;50.514;9.678;2023-05-12T07:23:55;98651.63;;;17.26;100.00
29903;BME280;30288;50.514;9.678;2023-05-12T07:26:01;98647.69;;;17.21;100.00
29903;BME280;30288;50.514;9.678;2023-05-12T07:28:07;98646.13;;;17.04;100.00
29903;BME280;30288;50.514;9.678;2023-05-12T07:30:13;98650.19;;;17.06;100.00
29903;BME280;30288;50.514;9.678;2023-05-12T07:32:18;98653.94;;;17.01;100.00
29903;BME280;30288;50.514;9.678;2023-05-12T07:34:24;98647.91;;;17.02;100.00
29903;BME280;30288;50.514;9.678;2023-05-12T07:36:32;98646.94;;;16.89;100.00
29903;BME280;30288;50.514;9.678;2023-05-12T07:38:37;98649.09;;;16.81;100.00
29903;BME280;30288;50.514;9.678;2023-05-12T07:40:43;98651.97;;;16.75;100.00
29903;BME280;30288;50.514;9.678;2023-05-12T07:42:48;98647.25;;;16.98;100.00
29903;BME280;30288;50.514;9.678;2023-05-12T07:44:54;98645.25;;;17.19;100.00
29903;BME280;30288;50.514;9.678;2023-05-12T07:47:00;98651.31;;;17.17;100.00
29903;BME280;30288;50.514;9.678;2023-05-12T07:49:05;98646.38;;;17.29;100.00
29903;BME280;30288;50.514;9.678;2023-05-12T07:51:10;98650.78;;;17.41;100.00
29903;BME280;30288;50.514;9.678;2023-05-12T07:53:18;98649.28;;;17.53;100.00
29903;BME280;30288;50.514;9.678;2023-05-12T07:55:23;98643.44;;;17.95;100.00
29903;BME280;30288;50.514;9.678;2023-05-12T07:57:28;98645.84;;;18.25;100.00
29903;BME280;30288;50.514;9.678;2023-05-12T07:59:33;98648.31;;;18.55;100.00
29903;BME280;30288;50.514;9.678;2023-05-12T08:01:40;98650.59;;;18.86;100.00
29903;BME280;30288;50.514;9.678;2023-05-12T08:03:47;98651.84;;;18.93;100.00
29903;BME280;30288;50.514;9.678;2023-05-12T08:05:52;98642.19;;;18.71;100.00
29903;BME280;30288;50.514;9.678;2023-05-12T08:07:58;98649.59;;;18.89;100.00
29903;BME280;30288;50.514;9.678;2023-05-12T08:10:06;98641.53;;;18.68;100.00
29903;BME280;30288;50.514;9.678;2023-05-12T08:12:11;98650.78;;;18.83;100.00
29903;BME280;30288;50.514;9.678;2023-05-12T08:14:16;98657.38;;;19.00;100.00
29903;BME280;30288;50.514;9.678;2023-05-12T08:16:23;98643.47;;;18.91;100.00
29903;BME280;30288;50.514;9.678;2023-05-12T08:18:27;98646.44;;;18.71;100.00
29903;BME280;30288;50.514;9.678;2023-05-12T08:20:33;98657.28;;;18.74;100.00
29903;BME280;30288;50.514;9.678;2023-05-12T08:22:39;98653.69;;;18.91;100.00
29903;BME280;30288;50.514;9.678;2023-05-12T08:24:45;98658.34;;;18.85;100.00
29903;BME280;30288;50.514;9.678;2023-05-12T08:26:54;98643.66;;;18.88;100.00
29903;BME280;30288;50.514;9.678;2023-05-12T08:28:59;98646.69;;;18.81;100.00
29903;BME280;30288;50.514;9.678;2023-05-12T08:31:06;98647.41;;;18.56;100.00
29903;BME280;30288;50.514;9.678;2023-05-12T08:33:12;98652.13;;;18.62;100.00
29903;BME280;30288;50.514;9.678;2023-05-12T08:35:18;98649.22;;;18.54;100.00
29903;BME280;30288;50.514;9.678;2023-05-12T08:37:26;98657.22;;;18.48;100.00
29903;BME280;30288;50.514;9.678;2023-05-12T08:39:36;98658.75;;;18.50;100.00
29903;BME280;30288;50.514;9.678;2023-05-12T08:41:44;98665.72;;;18.48;100.00
29903;BME280;30288;50.514;9.678;2023-05-12T08:43:58;98661.56;;;18.74;100.00
29903;BME280;30288;50.514;9.678;2023-05-12T08:46:04;98664.66;;;18.79;100.00
29903;BME280;30288;50.514;9.678;2023-05-12T08:48:11;98659.34;;;18.82;100.00
29903;BME280;30288;50.514;9.678;2023-05-12T08:50:21;98659.06;;;19.13;100.00
29903;BME280;30288;50.514;9.678;2023-05-12T08:52:31;98658.84;;;19.16;100.00
29903;BME280;30288;50.514;9.678;2023-05-12T08:54:37;98661.94;;;19.21;100.00
29903;BME280;30288;50.514;9.678;2023-05-12T08:56:57;98670.81;;;19.16;100.00
29903;BME280;30288;50.514;9.678;2023-05-12T08:59:08;98674.19;;;19.16;100.00
29903;BME280;30288;50.514;9.678;2023-05-12T09:01:15;98663.84;;;19.05;100.00
29903;BME280;30288;50.514;9.678;2023-05-12T09:03:22;98670.69;;;18.64;100.00
29903;BME280;30288;50.514;9.678;2023-05-12T09:05:29;98673.75;;;18.83;100.00
29903;BME280;30288;50.514;9.678;2023-05-12T09:07:35;98667.53;;;18.87;100.00
29903;BME280;30288;50.514;9.678;2023-05-12T09:09:43;98664.53;;;18.95;100.00
29903;BME280;30288;50.514;9.678;2023-05-12T09:11:50;98663.22;;;18.75;100.00
29903;BME280;30288;50.514;9.678;2023-05-12T09:14:01;98667.34;;;18.90;100.00
29903;BME280;30288;50.514;9.678;2023-05-12T09:16:12;98669.34;;;18.99;100.00
29903;BME280;30288;50.514;9.678;2023-05-12T09:18:18;98666.78;;;18.99;100.00
29903;BME280;30288;50.514;9.678;2023-05-12T09:20:25;98669.38;;;19.12;100.00
29903;BME280;30288;50.514;9.678;2023-05-12T09:22:33;98667.63;;;19.12;100.00
29903;BME280;30288;50.514;9.678;2023-05-12T09:24:39;98677.25;;;19.21;100.00
29903;BME280;30288;50.514;9.678;2023-05-12T09:26:47;98666.78;;;18.99;100.00
29903;BME280;30288;50.514;9.678;2023-05-12T09:28:55;98676.59;;;19.05;100.00
29903;BME280;30288;50.514;9.678;2023-05-12T09:31:19;98675.63;;;19.20;100.00
29903;BME280;30288;50.514;9.678;2023-05-12T09:33:25;98679.03;;;19.34;100.00
29903;BME280;30288;50.514;9.678;2023-05-12T09:35:30;98673.91;;;19.48;100.00
29903;BME280;30288;50.514;9.678;2023-05-12T09:37:37;98685.09;;;19.45;100.00
29903;BME280;30288;50.514;9.678;2023-05-12T09:39:43;98685.25;;;19.30;100.00
29903;BME280;30288;50.514;9.678;2023-05-12T09:41:49;98686.09;;;19.43;100.00
29903;BME280;30288;50.514;9.678;2023-05-12T09:43:58;98684.84;;;19.36;100.00
29903;BME280;30288;50.514;9.678;2023-05-12T09:46:04;98682.31;;;19.36;100.00
29903;BME280;30288;50.514;9.678;2023-05-12T09:48:13;98692.88;;;19.44;100.00
29903;BME280;30288;50.514;9.678;2023-05-12T09:50:19;98687.19;;;19.65;100.00
29903;BME280;30288;50.514;9.678;2023-05-12T09:52:24;98681.19;;;19.40;100.00
29903;BME280;30288;50.514;9.678;2023-05-12T09:54:31;98686.25;;;19.14;100.00
29903;BME280;30288;50.514;9.678;2023-05-12T09:56:37;98692.19;;;19.28;100.00
29903;BME280;30288;50.514;9.678;2023-05-12T09:58:45;98695.06;;;19.36;100.00
29903;BME280;30288;50.514;9.678;2023-05-12T10:00:51;98692.38;;;19.24;100.00
29903;BME280;30288;50.514;9.678;2023-05-12T10:03:01;98692.91;;;19.30;100.00
29903;BME280;30288;50.514;9.678;2023-05-12T10:05:14;98691.69;;;19.62;100.00
29903;BME280;30288;50.514;9.678;2023-05-12T10:07:22;98692.19;;;19.54;100.00
29903;BME280;30288;50.514;9.678;2023-05-12T10:09:31;98686.41;;;19.90;100.00
29903;BME280;30288;50.514;9.678;2023-05-12T10:11:37;98684.97;;;20.37;100.00
29903;BME280;30288;50.514;9.678;2023-05-12T10:13:44;98682.69;;;20.45;100.00
29903;BME280;30288;50.514;9.678;2023-05-12T10:15:49;98683.47;;;20.94;100.00
29903;BME280;30288;50.514;9.678;2023-05-12T10:17:55;98675.47;;;21.23;100.00
29903;BME280;30288;50.514;9.678;2023-05-12T10:20:02;98672.41;;;21.18;100.00
29903;BME280;30288;50.514;9.678;2023-05-12T10:22:13;98675.91;;;21.17;100.00
29903;BME280;30288;50.514;9.678;2023-05-12T10:24:20;98676.97;;;21.02;100.00
29903;BME280;30288;50.514;9.678;2023-05-12T10:26:25;98677.03;;;21.13;100.00
29903;BME280;30288;50.514;9.678;2023-05-12T10:28:31;98675.66;;;21.20;100.00
29903;BME280;30288;50.514;9.678;2023-05-12T10:30:37;98675.63;;;20.85;100.00
29903;BME280;30288;50.514;9.678;2023-05-12T10:32:44;98671.91;;;20.89;100.00
29903;BME280;30288;50.514;9.678;2023-05-12T10:34:49;98671.19;;;21.11;100.00
29903;BME280;30288;50.514;9.678;2023-05-12T10:36:54;98679.66;;;21.00;100.00
29903;BME280;30288;50.514;9.678;2023-05-12T10:39:06;98678.50;;;20.80;100.00
29903;BME280;30288;50.514;9.678;2023-05-12T10:41:12;98674.56;;;20.87;100.00
29903;BME280;30288;50.514;9.678;2023-05-12T10:43:21;98668.94;;;21.19;100.00
29903;BME280;30288;50.514;9.678;2023-05-12T10:45:28;98669.09;;;21.28;100.00
29903;BME280;30288;50.514;9.678;2023-05-12T10:47:38;98671.91;;;21.36;100.00
29903;BME280;30288;50.514;9.678;2023-05-12T10:49:43;98663.16;;;21.85;100.00
29903;BME280;30288;50.514;9.678;2023-05-12T10:51:49;98668.22;;;21.98;100.00
29903;BME280;30288;50.514;9.678;2023-05-12T10:53:57;98668.44;;;22.39;100.00
29903;BME280;30288;50.514;9.678;2023-05-12T10:56:06;98661.66;;;22.38;100.00
29903;BME280;30288;50.514;9.678;2023-05-12T10:58:12;98663.22;;;22.18;100.00
29903;BME280;30288;50.514;9.678;2023-05-12T11:00:23;98664.72;;;21.99;100.00
29903;BME280;30288;50.514;9.678;2023-05-12T11:02:31;98663.47;;;21.69;100.00